MZBZ/BZE METAR and TAF weather

Enter ICAO airport designator
Station Type Date Time Source
MZBZ METAR 2022/01/29 00:00 UTC NOAA

MZBZ 290000Z 11002KT 9999 FEW019 26/23 A2999 Q1015 NOSIG


Station Type Date Time Source
MZBZ Decoded METAR 2022/01/29 00:00 UTC NOAA

Belize / Phillip Goldston Intl. Airport, Belize (MZBZ) 17-32N 088-18W 5M
Jan 28, 2022 - 07:00 PM EST / 2022.01.29 0000 UTC
Wind: from the ESE (110 degrees) at 2 MPH (2 KT):0
Visibility: greater than 7 mile(s):0
Sky conditions: mostly clear
Temperature: 78 F (26 C)
Dew Point: 73 F (23 C)
Relative Humidity: 83%
Pressure (altimeter): 29.99 in. Hg (1015 hPa)
ob: MZBZ 290000Z 11002KT 9999 FEW019 26/23 A2999 Q1015 NOSIG
cycle: 0

Station Type Date Time Source
MZBZ TAF 2022/01/29 06:03 UTC NOAA

TAF TAF MZBZ 290300Z 2906/3006 36010G20KT 9999 SCT020 BKN040 PROB40
TEMPO 2906/2916 5000 SHRA BKN015 PROB30
TEMPO 2906/2909 3000 TSRA SCT010CB BKN035

Example: see airport list